createdAt,value
2018-09-10T00:00:10.660Z,14.7
2018-09-10T00:05:13.399Z,14.7
2018-09-10T00:10:08.236Z,14.6
2018-09-10T00:15:04.995Z,14.6
2018-09-10T00:20:04.922Z,14.5
2018-09-10T00:25:02.744Z,14.4
2018-09-10T00:30:08.061Z,14.4
2018-09-10T00:35:08.399Z,14.3
2018-09-10T00:40:10.743Z,14.2
2018-09-10T00:45:08.417Z,14.2
2018-09-10T00:50:35.571Z,14.2
2018-09-10T00:55:05.314Z,14.2
2018-09-10T01:00:02.653Z,14.2
2018-09-10T01:05:02.893Z,14.2
2018-09-10T01:10:05.150Z,14.2
2018-09-10T01:15:05.563Z,14.2
2018-09-10T01:20:02.863Z,14.2
2018-09-10T01:25:20.929Z,14.2
2018-09-10T01:30:05.708Z,14.2
2018-09-10T01:35:05.025Z,14.2
2018-09-10T01:40:05.307Z,14.2
2018-09-10T01:45:03.044Z,14.2
2018-09-10T01:50:03.310Z,14.2
2018-09-10T01:55:02.561Z,14.3
2018-09-10T02:00:05.339Z,14.3
2018-09-10T02:05:08.192Z,14.3
2018-09-10T02:10:05.381Z,14.3
2018-09-10T02:15:08.211Z,14.3
2018-09-10T02:20:02.522Z,14.2
2018-09-10T02:25:05.537Z,14.3
2018-09-10T02:30:28.073Z,14.2
2018-09-10T02:35:03.303Z,14.2
2018-09-10T02:40:08.172Z,14.1
2018-09-10T02:45:05.822Z,14.1
2018-09-10T02:50:02.511Z,14.1
2018-09-10T02:55:20.641Z,14
2018-09-10T03:00:07.933Z,14
2018-09-10T03:05:05.723Z,13.9
2018-09-10T03:10:05.127Z,13.9
2018-09-10T03:15:10.307Z,13.8
2018-09-10T03:20:05.173Z,13.9
2018-09-10T03:25:05.453Z,13.8
2018-09-10T03:30:07.733Z,13.8
2018-09-10T03:35:05.578Z,13.8
2018-09-10T03:40:03.325Z,13.8
2018-09-10T03:45:02.546Z,13.8
2018-09-10T03:50:10.383Z,13.7
2018-09-10T03:55:05.543Z,13.7
2018-09-10T04:00:05.336Z,13.7
2018-09-10T04:05:03.081Z,13.6
2018-09-10T04:10:02.817Z,13.6
2018-09-10T04:15:03.057Z,13.6
2018-09-10T04:20:02.423Z,13.5
2018-09-10T04:25:02.742Z,13.5
2018-09-10T04:30:02.940Z,13.5
2018-09-10T04:35:03.214Z,13.5
2018-09-10T04:40:02.967Z,13.5
2018-09-10T04:45:02.626Z,13.4
2018-09-10T04:50:05.461Z,0.5
2018-09-10T04:55:05.754Z,13.3
2018-09-10T05:00:08.035Z,13.3
2018-09-10T05:05:07.443Z,13.4
2018-09-10T05:10:18.387Z,13.4
2018-09-10T05:15:04.923Z,13.5
2018-09-10T05:20:10.802Z,13.5
2018-09-10T05:25:05.009Z,13.6
2018-09-10T05:30:02.567Z,13.6
2018-09-10T05:35:05.368Z,13.7
2018-09-10T05:40:08.090Z,13.7
2018-09-10T05:45:03.300Z,13.6
2018-09-10T05:50:07.642Z,13.7
2018-09-10T05:55:07.927Z,13.8
2018-09-10T06:00:05.763Z,13.9
2018-09-10T06:05:02.507Z,13.8
2018-09-10T06:10:05.755Z,14
2018-09-10T06:15:17.786Z,14.1
2018-09-10T06:20:03.115Z,14.1
2018-09-10T06:25:07.504Z,14.3
2018-09-10T06:30:02.799Z,14.3
2018-09-10T06:35:05.796Z,14.6
2018-09-10T06:40:05.095Z,14.7
2018-09-10T06:45:02.771Z,14.7
2018-09-10T06:50:03.077Z,14.8
2018-09-10T06:55:03.269Z,14.9
2018-09-10T07:00:07.676Z,15.2
2018-09-10T07:05:08.006Z,15.4
2018-09-10T07:10:02.929Z,15.4
2018-09-10T07:15:05.838Z,15.8
2018-09-10T07:20:05.752Z,16.1
2018-09-10T07:25:15.222Z,16.3
2018-09-10T07:30:12.669Z,16.5
2018-09-10T07:35:07.906Z,16.8
2018-09-10T07:40:07.686Z,17.1
2018-09-10T07:45:20.845Z,17.4
2018-09-10T07:50:05.666Z,17.6
2018-09-10T07:55:05.059Z,17.9
2018-09-10T08:00:11.008Z,18.1
2018-09-10T08:05:10.198Z,18.4
2018-09-10T08:10:02.968Z,18.4
2018-09-10T08:15:04.926Z,19.1
2018-09-10T08:20:10.892Z,19.3
2018-09-10T08:25:10.549Z,19.6
2018-09-10T08:30:03.035Z,19.6
2018-09-10T08:35:10.042Z,20.3
2018-09-10T08:40:07.836Z,20.6
2018-09-10T08:45:03.191Z,20.7
2018-09-10T08:50:05.158Z,21.2
2018-09-10T08:55:02.572Z,21.2
2018-09-10T09:00:05.917Z,21.6
2018-09-10T09:05:02.837Z,21.6
2018-09-10T09:10:02.684Z,21.8
2018-09-10T09:15:03.051Z,21.9
2018-09-10T09:20:07.503Z,21.9
2018-09-10T09:25:02.773Z,21.9
2018-09-10T09:30:05.694Z,22.1
2018-09-10T09:35:10.204Z,22.2
2018-09-10T09:40:10.872Z,22.2
2018-09-10T09:45:12.765Z,22.3
2018-09-10T09:50:03.058Z,22.3
2018-09-10T09:55:03.318Z,22.5
2018-09-10T10:00:05.134Z,22.7
2018-09-10T10:05:05.721Z,22.8
2018-09-10T10:10:07.563Z,23
2018-09-10T10:15:07.561Z,23.2
2018-09-10T10:20:03.094Z,23.2
2018-09-10T10:25:04.949Z,23.5
2018-09-10T10:30:02.524Z,23.5
2018-09-10T10:35:05.404Z,23.9
2018-09-10T10:40:05.686Z,23.9
2018-09-10T10:45:05.060Z,23.9
2018-09-10T10:50:02.351Z,23.9
2018-09-10T10:55:15.386Z,23.9
2018-09-10T11:00:02.673Z,24
2018-09-10T11:05:08.369Z,24.3
2018-09-10T11:10:03.158Z,24.3
2018-09-10T11:15:07.518Z,24.2
2018-09-10T11:20:08.035Z,24.2
2018-09-10T11:25:04.914Z,24.5
2018-09-10T11:30:05.776Z,24.7
2018-09-10T11:35:07.685Z,24.8
2018-09-10T11:40:10.062Z,24.7
2018-09-10T11:45:12.931Z,24.8
2018-09-10T11:50:05.028Z,24.9
2018-09-10T11:55:03.039Z,24.8
2018-09-10T12:00:02.425Z,24.9
2018-09-10T12:05:02.854Z,24.9
2018-09-10T12:10:10.280Z,24.9
2018-09-10T12:15:03.073Z,24.9
2018-09-10T12:20:07.869Z,24.8
2018-09-10T12:25:10.815Z,24.8
2018-09-10T12:30:07.554Z,24.9
2018-09-10T12:35:02.954Z,24.9
2018-09-10T12:40:02.775Z,24.9
2018-09-10T12:45:13.328Z,24.7
2018-09-10T12:50:30.604Z,24.6
2018-09-10T12:55:13.000Z,24.6
2018-09-10T13:00:05.995Z,24.6
2018-09-10T13:05:07.965Z,24.6
2018-09-10T13:10:33.176Z,24.6
2018-09-10T13:15:02.550Z,24.6
2018-09-10T13:20:03.105Z,24.7
2018-09-10T13:25:15.241Z,24.7
2018-09-10T13:30:05.078Z,24.7
2018-09-10T13:35:13.016Z,24.6
2018-09-10T13:40:07.926Z,24.6
2018-09-10T13:45:05.858Z,24.5
2018-09-10T13:50:05.687Z,24.5
2018-09-10T13:55:02.700Z,24.5
2018-09-10T14:00:03.008Z,24.4
2018-09-10T14:05:02.388Z,24.6
2018-09-10T14:10:23.513Z,11.9
2018-09-10T14:15:10.393Z,24.9
2018-09-10T14:20:08.415Z,24.9
2018-09-10T14:25:05.225Z,24.8
2018-09-10T14:30:28.461Z,24.7
2018-09-10T14:35:02.776Z,24.7
2018-09-10T14:40:05.357Z,24.5
2018-09-10T14:45:08.333Z,24.4
2018-09-10T14:50:07.849Z,24
2018-09-10T14:55:05.718Z,24.4
2018-09-10T15:00:10.798Z,24.2
2018-09-10T15:05:02.677Z,24.2
2018-09-10T15:10:07.551Z,24.1
2018-09-10T15:15:05.359Z,24.1
2018-09-10T15:20:15.524Z,24.1
2018-09-10T15:25:05.726Z,24.1
2018-09-10T15:30:05.698Z,24.1
2018-09-10T15:35:04.946Z,24.1
2018-09-10T15:40:05.277Z,24.1
2018-09-10T15:45:03.071Z,24.1
2018-09-10T15:50:02.644Z,24.1
2018-09-10T15:55:02.968Z,24.1
2018-09-10T16:00:03.298Z,24.1
2018-09-10T16:05:02.715Z,24.1
2018-09-10T16:10:10.168Z,24.1
2018-09-10T16:15:23.160Z,24
2018-09-10T16:20:02.631Z,24
2018-09-10T16:25:02.949Z,23.8
2018-09-10T16:30:05.786Z,23.6
2018-09-10T16:35:05.179Z,23.5
2018-09-10T16:40:05.587Z,23.4
2018-09-10T16:45:18.507Z,23.2
2018-09-10T16:50:03.103Z,23.2
2018-09-10T16:55:02.957Z,23.2
2018-09-10T17:00:05.048Z,22.9
2018-09-10T17:05:12.966Z,22.8
2018-09-10T17:10:18.047Z,22.7
2018-09-10T17:15:03.281Z,22.7
2018-09-10T17:20:02.756Z,22.6
2018-09-10T17:25:08.348Z,22.5
2018-09-10T17:30:02.668Z,22.5
2018-09-10T17:35:05.862Z,22.4
2018-09-10T17:40:07.762Z,22.3
2018-09-10T17:45:08.024Z,22.2
2018-09-10T17:50:04.945Z,22.2
2018-09-10T17:55:07.834Z,22
2018-09-10T18:00:05.729Z,22
2018-09-10T18:05:05.056Z,21.9
2018-09-10T18:10:02.935Z,21.9
2018-09-10T18:15:03.271Z,21.8
2018-09-10T18:20:05.241Z,21.6
2018-09-10T18:25:03.251Z,21.7
2018-09-10T18:30:07.802Z,21.6
2018-09-10T18:35:02.400Z,21.5
2018-09-10T18:40:10.786Z,21.5
2018-09-10T18:45:05.208Z,21.5
2018-09-10T18:50:02.510Z,21.4
2018-09-10T18:55:07.846Z,21.3
2018-09-10T19:00:10.765Z,21.3
2018-09-10T19:05:02.608Z,21.3
2018-09-10T19:10:20.156Z,21.1
2018-09-10T19:15:02.771Z,21.1
2018-09-10T19:20:03.115Z,21.1
2018-09-10T19:25:10.101Z,20.9
2018-09-10T19:30:05.008Z,20.9
2018-09-10T19:35:05.458Z,20.8
2018-09-10T19:40:03.227Z,20.8
2018-09-10T19:45:07.665Z,20.7
2018-09-10T19:50:08.046Z,20.6
2018-09-10T19:55:02.450Z,20.6
2018-09-10T20:00:10.324Z,20.5
2018-09-10T20:05:08.108Z,20.4
2018-09-10T20:10:02.981Z,20.4
2018-09-10T20:15:05.830Z,20.3
2018-09-10T20:20:03.268Z,20.3
2018-09-10T20:25:05.095Z,20.2
2018-09-10T20:30:04.937Z,20.2
2018-09-10T20:35:05.235Z,20
2018-09-10T20:40:05.502Z,20
2018-09-10T20:45:02.358Z,19.9
2018-09-10T20:50:07.796Z,19.7
2018-09-10T20:55:15.996Z,19.6
2018-09-10T21:00:03.289Z,19.6
2018-09-10T21:05:17.927Z,19.5
2018-09-10T21:10:17.911Z,19.5
2018-09-10T21:15:02.999Z,19.5
2018-09-10T21:20:05.875Z,19.4
2018-09-10T21:25:02.689Z,19.4
2018-09-10T21:30:02.958Z,19.4
2018-09-10T21:35:09.980Z,19.3
2018-09-10T21:40:02.728Z,19.3
2018-09-10T21:45:05.600Z,19.3
2018-09-10T21:50:07.957Z,19.3
2018-09-10T21:55:03.193Z,19.3
2018-09-10T22:00:05.118Z,19.4
2018-09-10T22:05:05.395Z,19.4
2018-09-10T22:10:13.381Z,19.3
2018-09-10T22:15:02.620Z,19.3
2018-09-10T22:20:05.494Z,19.3
2018-09-10T22:25:03.205Z,19.3
2018-09-10T22:30:02.444Z,19.3
2018-09-10T22:35:02.730Z,19.2
2018-09-10T22:40:05.021Z,19.2
2018-09-10T22:45:10.691Z,19.1
2018-09-10T22:50:05.456Z,19.1
2018-09-10T22:55:20.944Z,19.1
2018-09-10T23:00:08.229Z,19.1
2018-09-10T23:05:05.092Z,19.1
2018-09-10T23:10:05.382Z,19
2018-09-10T23:15:05.587Z,19
2018-09-10T23:20:02.942Z,19
2018-09-10T23:25:04.878Z,18.9
2018-09-10T23:30:05.803Z,18.9
2018-09-10T23:35:10.102Z,18.9
2018-09-10T23:40:02.926Z,18.9
2018-09-10T23:45:03.185Z,18.9
2018-09-10T23:50:05.059Z,18.9
2018-09-10T23:55:05.320Z,18.8
